Portada
METAR-TAF:

METAR-TAF

Aeroports :

Padang, Indonèsia

latitud: 00-47-12S, longitud: 100-16-50E, altitud: 5 m

Observació

L'informe es va fer fa 1 hora i 54 minuts, a les 12:30 UTC
Vent 3 kt del Oest/Nord-Oest, variant entre Oest i Nord-Oest
Temperatura 25°C
Humitat 100%
Pressió 1008 hPa
Visibilitat 10 km o més
Cel ennuvolat a una alçada de 1800 ft
pluja

METAR: WIEE 141230Z 30003KT 260V320 9999 -RA BKN018 25/25 Q1008

Hora: 21:24 (14:24 UTC)

Pronòstic

L'informe es va fer fa 3 hores i 24 minuts, a les 11:00 UTC
Pronòstic vàlid del 14 a les 12 UTC al 15 a les 12 UTC
Vent 2 kt del Sud-Est
Visibilitat 10 km o més
Núvols disperses a una alçada de 2000 ft
Evolucionant progressivament
l' 14 a les 14 UTC al 14 a les 16 UTC
Vent 4 kt del Est/Sud-Est
Cel ennuvolat a una alçada de 1900 ft

TAF: WIEE 141100Z 1412/1512 13002KT 9999 SCT020 BECMG 1414/1416 12004KT BKN019

Observacions i pronòstics meteorològics de més de 4000 aeroports (METAR i TAF).

Les estacions disponibles són els punts grocs i vermells al mapa.

Posi el ratolí al punt desitjat per veure el nom de l'estació.

Feu clic per veure les observacions i els pronòstics meteorològics.

Per canviar el mapa: feu clic els botons verds amb una creu de color negre per apropar; al botó verd amb un guió per allunyar la imatge; o en les fletxes verdes per a mapes adjacents.


METAR-TAF: